createdAt,value
2023-04-15T00:02:22.470Z,82.90
2023-04-15T00:04:50.055Z,83.42
2023-04-15T00:07:18.064Z,83.06
2023-04-15T00:09:46.197Z,83.07
2023-04-15T00:12:13.799Z,82.91
2023-04-15T00:14:41.117Z,82.66
2023-04-15T00:17:08.739Z,82.62
2023-04-15T00:19:36.016Z,82.65
2023-04-15T00:22:03.629Z,82.33
2023-04-15T00:24:31.748Z,82.26
2023-04-15T00:27:00.024Z,82.08
2023-04-15T00:29:27.297Z,81.92
2023-04-15T00:31:54.851Z,81.82
2023-04-15T00:34:22.076Z,82.14
2023-04-15T00:36:51.777Z,82.00
2023-04-15T00:39:19.186Z,82.48
2023-04-15T00:41:47.050Z,82.29
2023-04-15T00:44:14.510Z,82.08
2023-04-15T00:46:44.339Z,82.02
2023-04-15T00:49:13.185Z,82.28
2023-04-15T00:51:40.746Z,82.19
2023-04-15T00:54:08.144Z,82.25
2023-04-15T00:56:39.997Z,82.09
2023-04-15T00:59:08.869Z,82.14
2023-04-15T01:01:37.490Z,82.06
2023-04-15T01:04:06.153Z,81.87
2023-04-15T01:06:34.209Z,81.99
2023-04-15T01:09:02.426Z,81.75
2023-04-15T01:11:34.438Z,81.35
2023-04-15T01:14:02.892Z,81.30
2023-04-15T01:16:31.703Z,81.05
2023-04-15T01:18:59.398Z,80.70
2023-04-15T01:21:27.280Z,80.28
2023-04-15T01:23:57.197Z,79.59
2023-04-15T01:26:25.461Z,78.58
2023-04-15T01:28:52.700Z,77.68
2023-04-15T01:31:20.389Z,77.50
2023-04-15T01:33:47.653Z,76.45
2023-04-15T01:36:15.166Z,76.04
2023-04-15T01:38:42.517Z,75.64
2023-04-15T01:41:10.228Z,74.96
2023-04-15T01:43:37.850Z,73.53
2023-04-15T01:46:06.367Z,74.07
2023-04-15T01:48:34.252Z,74.12
2023-04-15T01:51:02.424Z,74.46
2023-04-15T01:53:30.154Z,74.89
2023-04-15T01:55:57.832Z,75.98
2023-04-15T01:58:25.212Z,76.27
2023-04-15T02:00:52.842Z,78.72
2023-04-15T02:03:20.279Z,78.68
2023-04-15T02:05:47.998Z,78.92
2023-04-15T02:08:15.281Z,78.71
2023-04-15T02:10:42.901Z,79.31
2023-04-15T02:13:10.998Z,79.18
2023-04-15T02:15:38.583Z,79.06
2023-04-15T02:18:05.908Z,79.16
2023-04-15T02:20:33.596Z,79.14
2023-04-15T02:23:01.169Z,78.41
2023-04-15T02:25:28.717Z,77.92
2023-04-15T02:27:58.361Z,77.67
2023-04-15T02:30:26.212Z,77.83
2023-04-15T02:32:53.666Z,78.01
2023-04-15T02:35:21.553Z,77.66
2023-04-15T02:37:48.899Z,77.38
2023-04-15T02:40:16.431Z,76.92
2023-04-15T02:42:44.480Z,76.72
2023-04-15T02:45:12.994Z,76.25
2023-04-15T02:47:44.097Z,75.78
2023-04-15T02:50:13.673Z,75.77
2023-04-15T02:52:42.921Z,75.35
2023-04-15T02:55:10.847Z,75.50
2023-04-15T02:57:39.341Z,75.15
2023-04-15T03:00:09.783Z,74.86
2023-04-15T03:02:41.156Z,74.42
2023-04-15T03:05:14.278Z,74.30
2023-04-15T03:07:41.709Z,74.61
2023-04-15T03:10:10.521Z,74.49
2023-04-15T03:12:37.823Z,74.54
2023-04-15T03:15:06.636Z,74.42
2023-04-15T03:17:33.986Z,74.30
2023-04-15T03:20:05.281Z,74.25
2023-04-15T03:22:33.650Z,74.30
2023-04-15T03:25:01.860Z,74.52
2023-04-15T03:27:29.164Z,74.30
2023-04-15T03:29:56.974Z,74.25
2023-04-15T03:32:24.549Z,74.30
2023-04-15T03:34:52.172Z,74.14
2023-04-15T03:37:19.529Z,74.34
2023-04-15T03:39:47.323Z,74.16
2023-04-15T03:42:14.594Z,74.31
2023-04-15T03:44:42.332Z,74.61
2023-04-15T03:47:09.591Z,74.31
2023-04-15T03:49:37.716Z,74.62
2023-04-15T03:52:05.118Z,74.42
2023-04-15T03:54:32.781Z,74.58
2023-04-15T03:57:00.028Z,74.63
2023-04-15T03:59:27.653Z,74.56
2023-04-15T04:01:54.927Z,74.58
2023-04-15T04:04:22.686Z,74.45
2023-04-15T04:06:49.994Z,74.67
2023-04-15T04:09:17.493Z,74.75
2023-04-15T04:11:45.725Z,74.71
2023-04-15T04:14:13.274Z,74.63
2023-04-15T04:16:40.772Z,74.43
2023-04-15T04:19:08.679Z,74.48
2023-04-15T04:21:36.651Z,74.67
2023-04-15T04:24:04.248Z,74.75
2023-04-15T04:26:31.465Z,74.82
2023-04-15T04:28:59.134Z,74.92
2023-04-15T04:31:27.345Z,74.63
2023-04-15T04:33:54.881Z,74.36
2023-04-15T04:36:22.266Z,74.47
2023-04-15T04:38:49.857Z,74.26
2023-04-15T04:41:17.808Z,74.04
2023-04-15T04:43:45.388Z,73.94
2023-04-15T04:46:12.985Z,73.98
2023-04-15T04:48:40.721Z,73.71
2023-04-15T04:51:08.302Z,73.60
2023-04-15T04:53:37.769Z,73.36
2023-04-15T04:56:05.317Z,73.39
2023-04-15T04:58:32.852Z,73.34
2023-04-15T05:01:00.366Z,73.14
2023-04-15T05:03:28.146Z,72.83
2023-04-15T05:05:55.547Z,72.82
2023-04-15T05:08:23.105Z,72.95
2023-04-15T05:10:50.510Z,72.69
2023-04-15T05:13:18.108Z,72.58
2023-04-15T05:15:45.581Z,72.34
2023-04-15T05:18:13.324Z,72.35
2023-04-15T05:20:40.724Z,72.18
2023-04-15T05:23:08.425Z,72.20
2023-04-15T05:25:35.806Z,72.06
2023-04-15T05:28:03.425Z,72.22
2023-04-15T05:30:30.836Z,72.03
2023-04-15T05:32:58.487Z,71.89
2023-04-15T05:35:25.842Z,71.66
2023-04-15T05:37:53.434Z,71.38
2023-04-15T05:40:20.860Z,71.41
2023-04-15T05:42:48.536Z,70.94
2023-04-15T05:45:15.813Z,71.02
2023-04-15T05:47:43.533Z,70.64
2023-04-15T05:50:11.286Z,70.65
2023-04-15T05:52:39.046Z,70.25
2023-04-15T05:55:07.013Z,69.95
2023-04-15T05:57:34.583Z,69.75
2023-04-15T06:00:01.854Z,69.47
2023-04-15T06:02:29.459Z,69.27
2023-04-15T06:04:57.929Z,68.45
2023-04-15T06:07:25.667Z,68.18
2023-04-15T06:09:53.015Z,68.17
2023-04-15T06:12:21.547Z,67.76
2023-04-15T06:14:48.943Z,67.84
2023-04-15T06:17:18.551Z,67.30
2023-04-15T06:19:46.017Z,67.35
2023-04-15T06:22:13.935Z,66.60
2023-04-15T06:24:41.588Z,66.79
2023-04-15T06:27:09.807Z,66.69
2023-04-15T06:29:37.593Z,66.06
2023-04-15T06:32:05.426Z,64.82
2023-04-15T06:34:32.692Z,63.44
2023-04-15T06:37:01.968Z,62.91
2023-04-15T06:39:29.939Z,58.25
2023-04-15T06:41:57.654Z,57.74
2023-04-15T06:44:24.964Z,56.28
2023-04-15T06:46:52.538Z,55.20
2023-04-15T06:49:19.804Z,54.39
2023-04-15T06:51:47.351Z,53.06
2023-04-15T06:54:14.724Z,52.11
2023-04-15T06:56:43.311Z,50.12
2023-04-15T06:59:10.676Z,49.39
2023-04-15T07:01:38.347Z,50.04
2023-04-15T07:04:06.355Z,49.76
2023-04-15T07:06:33.962Z,49.37
2023-04-15T07:09:03.566Z,48.16
2023-04-15T07:11:31.754Z,47.53
2023-04-15T07:13:59.284Z,46.64
2023-04-15T07:16:28.584Z,46.37
2023-04-15T07:18:57.291Z,46.56
2023-04-15T07:21:25.902Z,45.30
2023-04-15T07:23:53.394Z,45.16
2023-04-15T07:26:21.032Z,44.55
2023-04-15T07:28:49.287Z,44.27
2023-04-15T07:31:17.611Z,43.26
2023-04-15T07:33:45.271Z,42.88
2023-04-15T07:36:13.330Z,42.25
2023-04-15T07:38:40.718Z,40.95
2023-04-15T07:41:08.260Z,36.47
2023-04-15T07:43:35.541Z,34.05
2023-04-15T07:46:03.109Z,31.10
2023-04-15T07:48:30.828Z,26.88
2023-04-15T07:50:59.582Z,23.90
2023-04-15T07:53:27.143Z,22.03
2023-04-15T07:55:54.717Z,20.45
2023-04-15T07:58:21.991Z,18.10
2023-04-15T08:00:49.519Z,17.09
2023-04-15T08:03:16.896Z,18.20
2023-04-15T08:05:45.642Z,18.47
2023-04-15T08:08:13.021Z,17.16
2023-04-15T08:10:41.087Z,19.20
2023-04-15T08:13:08.488Z,17.15
2023-04-15T08:15:36.113Z,15.41
2023-04-15T08:18:03.564Z,16.81
2023-04-15T08:20:31.137Z,17.80
2023-04-15T08:22:58.397Z,18.36
2023-04-15T08:25:25.953Z,19.00
2023-04-15T08:27:55.789Z,18.13
2023-04-15T08:30:23.855Z,18.80
2023-04-15T08:32:51.440Z,17.07
2023-04-15T08:35:19.084Z,16.61
2023-04-15T08:37:46.378Z,17.28
2023-04-15T08:40:14.340Z,17.21
2023-04-15T08:42:49.237Z,18.19
2023-04-15T08:45:18.779Z,18.64
2023-04-15T08:47:49.331Z,18.60
2023-04-15T08:50:18.403Z,17.49
2023-04-15T08:52:45.761Z,17.25
2023-04-15T08:55:16.240Z,16.14
2023-04-15T08:57:43.911Z,16.31
2023-04-15T09:00:12.578Z,14.50
2023-04-15T09:02:41.411Z,13.58
2023-04-15T09:05:09.507Z,11.95
2023-04-15T09:07:36.901Z,10.62
2023-04-15T09:10:05.538Z,9.59
2023-04-15T09:12:36.983Z,10.24
2023-04-15T09:15:05.272Z,11.54
2023-04-15T09:17:34.727Z,11.53
2023-04-15T09:20:11.132Z,11.49
2023-04-15T09:22:40.862Z,12.01
2023-04-15T09:25:31.081Z,12.69
2023-04-15T09:28:02.412Z,10.71
2023-04-15T09:30:30.663Z,9.00
2023-04-15T09:33:02.539Z,8.38
2023-04-15T09:35:30.195Z,8.14
2023-04-15T09:38:07.628Z,6.74
2023-04-15T09:40:42.324Z,6.95
2023-04-15T09:43:13.142Z,7.17
2023-04-15T09:45:52.757Z,7.98
2023-04-15T09:48:31.196Z,10.49
2023-04-15T09:51:00.655Z,12.99
2023-04-15T09:53:31.764Z,14.92
2023-04-15T09:56:02.658Z,15.89
2023-04-15T09:58:35.182Z,13.30
2023-04-15T10:01:06.510Z,9.26
2023-04-15T10:03:38.060Z,7.23
2023-04-15T10:06:06.378Z,6.99
2023-04-15T10:08:35.177Z,6.04
2023-04-15T10:11:05.148Z,5.77
2023-04-15T10:13:35.124Z,8.70
2023-04-15T10:16:10.964Z,10.60
2023-04-15T10:18:47.046Z,13.07
2023-04-15T10:21:18.635Z,14.57
2023-04-15T10:23:47.372Z,15.58
2023-04-15T10:26:17.795Z,11.22
2023-04-15T10:28:47.379Z,12.43
2023-04-15T10:31:17.149Z,15.11
2023-04-15T10:33:46.263Z,16.29
2023-04-15T10:36:15.485Z,16.72
2023-04-15T10:38:45.906Z,16.54
2023-04-15T10:41:17.829Z,15.49
2023-04-15T10:44:09.727Z,11.27
2023-04-15T10:46:41.800Z,11.46
2023-04-15T10:49:26.248Z,14.76
2023-04-15T10:51:59.817Z,16.90
2023-04-15T10:54:27.446Z,19.18
2023-04-15T10:57:04.044Z,19.65
2023-04-15T10:59:32.062Z,20.73
2023-04-15T11:02:09.190Z,21.98
2023-04-15T11:05:00.234Z,22.75
2023-04-15T11:07:42.598Z,20.43
2023-04-15T11:10:19.150Z,17.31
2023-04-15T11:12:51.346Z,14.27
2023-04-15T11:15:41.112Z,14.88
2023-04-15T11:18:15.550Z,16.75
2023-04-15T11:20:55.059Z,18.11
2023-04-15T11:23:30.241Z,18.36
2023-04-15T11:26:00.051Z,18.82
2023-04-15T11:28:31.504Z,19.71
2023-04-15T11:31:07.181Z,20.20
2023-04-15T11:33:34.840Z,20.43
2023-04-15T11:36:04.339Z,20.75
2023-04-15T11:38:32.568Z,20.49
2023-04-15T11:41:00.005Z,20.79
2023-04-15T11:43:27.748Z,21.16
2023-04-15T11:46:01.536Z,21.56
2023-04-15T11:48:33.061Z,22.59
2023-04-15T11:51:04.416Z,23.36
2023-04-15T11:53:47.608Z,24.21
2023-04-15T11:56:24.069Z,24.77
2023-04-15T11:58:59.464Z,25.30
2023-04-15T12:01:39.501Z,25.81
2023-04-15T12:04:25.362Z,26.21
2023-04-15T12:06:53.337Z,25.91
2023-04-15T12:09:21.919Z,26.06
2023-04-15T12:11:54.220Z,26.03
2023-04-15T12:14:33.270Z,26.45
2023-04-15T12:17:03.770Z,25.58
2023-04-15T12:19:41.781Z,25.73
2023-04-15T12:22:18.343Z,26.31
2023-04-15T12:24:48.309Z,26.57
2023-04-15T12:27:17.531Z,26.96
2023-04-15T12:29:45.447Z,27.35
2023-04-15T12:32:19.885Z,27.13
2023-04-15T12:34:52.803Z,27.76
2023-04-15T12:37:20.783Z,27.93
2023-04-15T12:39:50.196Z,27.87
2023-04-15T12:42:18.825Z,27.94
2023-04-15T12:44:47.385Z,28.24
2023-04-15T12:47:15.142Z,28.44
2023-04-15T12:49:42.816Z,28.33
2023-04-15T12:52:10.194Z,28.32
2023-04-15T12:54:37.840Z,29.03
2023-04-15T12:57:07.305Z,29.32
2023-04-15T12:59:36.121Z,29.71
2023-04-15T13:02:04.338Z,29.45
2023-04-15T13:04:32.339Z,29.34
2023-04-15T13:06:59.820Z,28.83
2023-04-15T13:09:27.422Z,28.98
2023-04-15T13:11:54.991Z,29.28
2023-04-15T13:14:22.676Z,29.59
2023-04-15T13:16:50.021Z,29.73
2023-04-15T13:19:17.754Z,29.12
2023-04-15T13:21:45.082Z,29.52
2023-04-15T13:24:12.619Z,29.57
2023-04-15T13:26:39.952Z,29.21
2023-04-15T13:29:07.628Z,29.38
2023-04-15T13:31:34.937Z,28.90
2023-04-15T13:34:02.784Z,28.35
2023-04-15T13:36:30.749Z,28.63
2023-04-15T13:38:58.584Z,27.90
2023-04-15T13:41:25.998Z,28.51
2023-04-15T13:43:53.499Z,28.36
2023-04-15T13:46:20.908Z,28.11
2023-04-15T13:48:48.496Z,29.39
2023-04-15T13:51:15.830Z,29.65
2023-04-15T13:53:43.405Z,30.27
2023-04-15T13:56:10.906Z,31.01
2023-04-15T13:58:41.623Z,31.54
2023-04-15T14:01:09.165Z,32.47
2023-04-15T14:03:37.320Z,32.92
2023-04-15T14:06:08.678Z,33.61
2023-04-15T14:08:36.363Z,33.60
2023-04-15T14:11:03.950Z,34.68
2023-04-15T14:13:31.511Z,35.09
2023-04-15T14:15:58.857Z,34.43
2023-04-15T14:18:26.537Z,34.70
2023-04-15T14:20:53.939Z,35.00
2023-04-15T14:23:21.976Z,35.24
2023-04-15T14:25:51.728Z,34.91
2023-04-15T14:28:19.417Z,34.59
2023-04-15T14:30:46.834Z,34.08
2023-04-15T14:33:14.540Z,34.74
2023-04-15T14:35:42.054Z,34.90
2023-04-15T14:38:11.481Z,35.75
2023-04-15T14:40:41.320Z,36.02
2023-04-15T14:43:09.064Z,35.78
2023-04-15T14:45:39.546Z,36.36
2023-04-15T14:48:10.486Z,36.98
2023-04-15T14:50:37.873Z,36.26
2023-04-15T14:53:05.531Z,36.05
2023-04-15T14:55:33.512Z,36.03
2023-04-15T14:58:02.489Z,36.43
2023-04-15T15:00:30.037Z,36.60
2023-04-15T15:02:58.634Z,36.33
2023-04-15T15:05:26.059Z,36.56
2023-04-15T15:07:53.802Z,36.32
2023-04-15T15:10:47.949Z,36.49
2023-04-15T15:13:10.785Z,36.60
2023-04-15T15:15:39.242Z,36.69
2023-04-15T15:18:07.083Z,36.66
2023-04-15T15:20:35.509Z,36.96
2023-04-15T15:23:03.240Z,36.90
2023-04-15T15:25:30.518Z,37.23
2023-04-15T15:27:58.172Z,37.27
2023-04-15T15:30:25.673Z,37.35
2023-04-15T15:32:53.368Z,37.37
2023-04-15T15:35:22.942Z,37.22
2023-04-15T15:37:51.341Z,37.11
2023-04-15T15:40:18.726Z,37.15
2023-04-15T15:42:49.938Z,37.36
2023-04-15T15:45:17.838Z,37.57
2023-04-15T15:47:45.467Z,38.40
2023-04-15T15:50:14.326Z,38.04
2023-04-15T15:52:42.120Z,39.25
2023-04-15T15:55:09.670Z,40.60
2023-04-15T15:57:39.098Z,42.09
2023-04-15T16:00:12.425Z,42.93
2023-04-15T16:03:05.284Z,43.96
2023-04-15T16:05:28.209Z,43.66
2023-04-15T16:07:55.831Z,43.69
2023-04-15T16:10:23.111Z,45.70
2023-04-15T16:12:50.783Z,46.94
2023-04-15T16:15:18.143Z,47.38
2023-04-15T16:17:46.002Z,48.61
2023-04-15T16:20:13.663Z,50.76
2023-04-15T16:22:41.453Z,51.43
2023-04-15T16:25:09.314Z,52.74
2023-04-15T16:27:54.095Z,53.50
2023-04-15T16:30:25.009Z,53.23
2023-04-15T16:32:53.546Z,53.58
2023-04-15T16:35:21.062Z,54.70
2023-04-15T16:37:48.659Z,53.91
2023-04-15T16:40:16.365Z,54.49
2023-04-15T16:42:44.144Z,54.11
2023-04-15T16:45:11.752Z,56.13
2023-04-15T16:47:39.725Z,55.49
2023-04-15T16:50:08.157Z,56.65
2023-04-15T16:52:36.668Z,58.49
2023-04-15T16:55:05.322Z,60.04
2023-04-15T16:58:00.415Z,62.18
2023-04-15T17:00:20.988Z,62.82
2023-04-15T17:02:48.802Z,65.85
2023-04-15T17:05:16.377Z,66.74
2023-04-15T17:07:44.025Z,67.44
2023-04-15T17:10:13.866Z,68.19
2023-04-15T17:12:41.438Z,70.35
2023-04-15T17:15:09.629Z,72.45
2023-04-15T17:17:37.177Z,74.14
2023-04-15T17:20:05.454Z,75.88
2023-04-15T17:22:33.666Z,78.66
2023-04-15T17:25:01.089Z,77.74
2023-04-15T17:27:29.977Z,77.20
2023-04-15T17:29:57.603Z,77.02
2023-04-15T17:32:31.858Z,76.97
2023-04-15T17:34:59.431Z,77.89
2023-04-15T17:37:27.021Z,78.37
2023-04-15T17:39:54.398Z,80.37
2023-04-15T17:42:23.035Z,80.87
2023-04-15T17:44:50.313Z,79.65
2023-04-15T17:47:18.087Z,78.00
2023-04-15T17:49:45.540Z,77.88
2023-04-15T17:52:14.061Z,77.39
2023-04-15T17:54:41.413Z,77.60
2023-04-15T17:57:09.708Z,76.74
2023-04-15T17:59:37.225Z,77.13
2023-04-15T18:02:04.998Z,76.76
2023-04-15T18:04:32.548Z,76.14
2023-04-15T18:07:00.338Z,75.87
2023-04-15T18:09:28.122Z,76.12
2023-04-15T18:11:57.422Z,76.05
2023-04-15T18:14:34.115Z,75.98
2023-04-15T18:17:03.402Z,77.16
2023-04-15T18:19:31.857Z,77.58
2023-04-15T18:22:03.431Z,77.59
2023-04-15T18:24:30.950Z,79.43
2023-04-15T18:26:59.275Z,79.72
2023-04-15T18:29:26.726Z,79.12
2023-04-15T18:31:54.798Z,78.40
2023-04-15T18:34:22.219Z,77.89
2023-04-15T18:36:49.874Z,78.90
2023-04-15T18:39:17.332Z,77.49
2023-04-15T18:41:45.714Z,79.01
2023-04-15T18:44:13.169Z,78.28
2023-04-15T18:46:40.974Z,78.54
2023-04-15T18:49:08.361Z,78.32
2023-04-15T18:51:36.312Z,79.64
2023-04-15T18:54:03.686Z,80.78
2023-04-15T18:56:31.727Z,81.28
2023-04-15T18:59:10.061Z,82.17
2023-04-15T19:01:46.780Z,81.08
2023-04-15T19:04:14.508Z,80.64
2023-04-15T19:06:42.246Z,80.28
2023-04-15T19:09:09.591Z,80.46
2023-04-15T19:11:37.226Z,81.00
2023-04-15T19:14:04.781Z,80.89
2023-04-15T19:16:32.489Z,81.14
2023-04-15T19:18:59.853Z,82.00
2023-04-15T19:21:28.788Z,80.64
2023-04-15T19:23:57.887Z,80.32
2023-04-15T19:26:25.629Z,80.13
2023-04-15T19:28:58.921Z,80.01
2023-04-15T19:31:26.714Z,79.58
2023-04-15T19:33:54.078Z,79.13
2023-04-15T19:36:21.724Z,79.48
2023-04-15T19:38:49.043Z,80.49
2023-04-15T19:41:16.697Z,80.62
2023-04-15T19:43:44.020Z,82.11
2023-04-15T19:46:13.461Z,82.54
2023-04-15T19:48:40.995Z,81.77
2023-04-15T19:51:08.917Z,81.88
2023-04-15T19:53:36.509Z,81.58
2023-04-15T19:56:04.125Z,81.28
2023-04-15T19:58:32.713Z,80.78
2023-04-15T20:01:01.476Z,80.42
2023-04-15T20:03:28.966Z,80.43
2023-04-15T20:05:56.636Z,80.64
2023-04-15T20:08:24.057Z,80.46
2023-04-15T20:10:51.950Z,80.40
2023-04-15T20:13:19.312Z,80.03
2023-04-15T20:15:47.528Z,80.18
2023-04-15T20:18:14.960Z,80.58
2023-04-15T20:20:42.637Z,81.35
2023-04-15T20:23:10.079Z,80.74
2023-04-15T20:25:37.849Z,80.63
2023-04-15T20:28:05.163Z,80.74
2023-04-15T20:30:33.022Z,80.70
2023-04-15T20:33:00.763Z,81.50
2023-04-15T20:35:31.081Z,81.17
2023-04-15T20:37:58.877Z,81.07
2023-04-15T20:40:27.262Z,81.31
2023-04-15T20:42:54.543Z,80.92
2023-04-15T20:45:22.359Z,80.75
2023-04-15T20:47:49.854Z,80.64
2023-04-15T20:50:17.758Z,80.34
2023-04-15T20:52:45.045Z,80.06
2023-04-15T20:55:12.834Z,79.86
2023-04-15T20:57:40.525Z,79.80
2023-04-15T21:00:10.961Z,79.72
2023-04-15T21:02:38.810Z,79.71
2023-04-15T21:05:07.837Z,79.84
2023-04-15T21:07:35.391Z,80.10
2023-04-15T21:10:03.182Z,80.46
2023-04-15T21:12:30.686Z,80.26
2023-04-15T21:14:58.358Z,80.82
2023-04-15T21:17:25.822Z,80.43
2023-04-15T21:19:53.431Z,80.62
2023-04-15T21:22:20.759Z,81.31
2023-04-15T21:24:49.175Z,81.51
2023-04-15T21:27:16.567Z,83.60
2023-04-15T21:29:44.283Z,83.98
2023-04-15T21:32:12.341Z,83.64
2023-04-15T21:34:40.049Z,85.75
2023-04-15T21:37:07.874Z,86.97
2023-04-15T21:39:35.536Z,88.12
2023-04-15T21:42:02.990Z,88.35
2023-04-15T21:44:31.426Z,89.35
2023-04-15T21:46:59.240Z,89.64
2023-04-15T21:49:26.956Z,91.36
2023-04-15T21:51:54.234Z,91.45
2023-04-15T21:54:21.818Z,91.53
2023-04-15T21:56:50.182Z,91.73
2023-04-15T21:59:17.876Z,91.68
2023-04-15T22:01:45.708Z,91.48
2023-04-15T22:04:13.638Z,91.92
2023-04-15T22:06:41.013Z,92.32
2023-04-15T22:09:08.618Z,92.87
2023-04-15T22:11:36.040Z,92.29
2023-04-15T22:14:03.840Z,92.87
2023-04-15T22:16:31.274Z,92.53
2023-04-15T22:18:58.957Z,92.83
2023-04-15T22:21:26.864Z,92.71
2023-04-15T22:24:38.341Z,92.76
2023-04-15T22:26:41.860Z,92.84
2023-04-15T22:29:10.133Z,92.65
2023-04-15T22:31:37.431Z,92.24
2023-04-15T22:34:05.073Z,92.19
2023-04-15T22:36:32.378Z,91.84
2023-04-15T22:38:59.938Z,92.00
2023-04-15T22:41:27.411Z,91.69
2023-04-15T22:43:54.874Z,91.04
2023-04-15T22:46:22.191Z,90.66
2023-04-15T22:48:49.895Z,90.58
2023-04-15T22:51:28.019Z,90.90
2023-04-15T22:53:56.563Z,90.78
2023-04-15T22:56:24.108Z,90.79
2023-04-15T22:58:51.820Z,90.49
2023-04-15T23:01:20.805Z,90.37
2023-04-15T23:03:56.188Z,89.77
2023-04-15T23:06:27.201Z,89.46
2023-04-15T23:08:54.976Z,89.18
2023-04-15T23:11:22.274Z,88.90
2023-04-15T23:13:50.780Z,88.59
2023-04-15T23:16:18.144Z,88.67
2023-04-15T23:18:45.701Z,88.17
2023-04-15T23:21:12.881Z,87.79
2023-04-15T23:23:40.541Z,87.46
2023-04-15T23:26:07.787Z,87.12
2023-04-15T23:28:35.340Z,86.83
2023-04-15T23:31:02.714Z,86.68
2023-04-15T23:33:30.509Z,86.33
2023-04-15T23:35:57.805Z,86.29
2023-04-15T23:38:25.399Z,86.04
2023-04-15T23:40:52.828Z,85.63
2023-04-15T23:43:20.391Z,85.61
2023-04-15T23:45:48.000Z,85.59
2023-04-15T23:48:15.550Z,85.27
2023-04-15T23:50:42.884Z,85.42
2023-04-15T23:53:10.481Z,84.97
2023-04-15T23:55:37.671Z,84.98
2023-04-15T23:58:05.220Z,84.93
